map of HAM home
HAM - Airport
Location
City:  Hamburg, Hamburg, Germany
Name:Fuhlsbüttel
ICAO:EDDH
IATA:HAM

Details
Type:Airport (Flugplatz, Airfield)
Use:Public/Civil, International (customs port of entry)
Latitude:53°37'49"N (53.630389)
Longitude:9°59'18"E (9.988228)
Datum:WGS 1984
Elevation:53 ft (16 m)
Variation:2.70°E (WMM2015 magnetic declination)
0.14° annual change
Runways:2
Longest:12028 × 150 ft (3666 × 45.5 m), paved

Time
Time Zone:UTC+1 (DST+2)
Local Time:

Weather
METAR:EDDH 281120Z 20010KT 170V230 9999 -RA FEW013 SCT015 09/06 Q1012 NOSIG
TAF:EDDH 281100Z 2812/2918 22008KT 9999 BKN030 PROB30
TEMPO 2812/2818 SHRA BKN014CB
BECMG 2818/2820 28004KT
BECMG 2906/2908 29009KT

Related Locations
Nearby:
Farthest:CHT: 11692 mi / 18817 km
Waitangi [Tuuta], CIT, NZ

Find:

   beyond  
but within

Other Information
Maps:
NOTAMs:
Links:
Sources:

  
flag of Germany
flag of Hamburg
  

Airport Diagram

Airport diagram for HAM

Larger airport diagram (OBSOLETE) from NGA

Sectional Chart

Flight Planning
at skyvector.com

Satellite Image

Google Maps Satellite view

 

Copyright © 2004-2017 Karl L. Swartz. All rights reserved.
The Great Circle Mapper name and logo are trademarks of the Great Circle Mapper.
All other trademarks mentioned herein belong to their respective owners.
Please see credits for attibutions and further copyright information.

  Follow gcmap on Facebook Follow gcmap on Twitter Follow gcmap on Google+ GCmap on LinkedIn

hCard Microformat

Geo Microformat